createdAt,value
2018-11-02T00:00:50.635Z,8.80
2018-11-02T00:03:25.776Z,9.07
2018-11-02T00:06:01.012Z,8.63
2018-11-02T00:08:37.047Z,9.13
2018-11-02T00:11:12.153Z,9.50
2018-11-02T00:13:47.400Z,8.17
2018-11-02T00:16:23.380Z,8.03
2018-11-02T00:18:58.384Z,7.73
2018-11-02T00:21:33.349Z,7.47
2018-11-02T00:24:08.682Z,7.40
2018-11-02T00:26:44.348Z,6.90
2018-11-02T00:29:19.490Z,6.57
2018-11-02T00:31:54.692Z,6.27
2018-11-02T00:34:30.243Z,6.40
2018-11-02T00:37:05.716Z,5.83
2018-11-02T00:39:40.952Z,6.20
2018-11-02T00:42:15.846Z,6.50
2018-11-02T00:44:51.848Z,6.60
2018-11-02T00:47:26.805Z,5.77
2018-11-02T00:50:02.164Z,5.93
2018-11-02T00:52:37.671Z,5.30
2018-11-02T00:55:12.917Z,4.53
2018-11-02T00:57:48.382Z,3.97
2018-11-02T01:00:23.988Z,3.33
2018-11-02T01:02:59.279Z,3.57
2018-11-02T01:05:35.141Z,3.00
2018-11-02T01:08:10.351Z,3.43
2018-11-02T01:10:45.430Z,3.10
2018-11-02T01:13:20.494Z,3.20
2018-11-02T01:15:55.265Z,3.10
2018-11-02T01:18:30.932Z,2.97
2018-11-02T01:21:06.890Z,2.80
2018-11-02T01:23:41.857Z,3.07
2018-11-02T01:26:17.013Z,2.97
2018-11-02T01:28:52.567Z,2.60
2018-11-02T01:31:27.669Z,2.60
2018-11-02T01:34:02.574Z,2.43
2018-11-02T01:36:37.619Z,2.27
2018-11-02T01:39:13.308Z,2.60
2018-11-02T01:41:48.425Z,2.73
2018-11-02T01:44:23.455Z,2.60
2018-11-02T01:46:58.862Z,2.70
2018-11-02T01:49:33.910Z,2.60
2018-11-02T01:52:09.264Z,2.97
2018-11-02T01:54:44.677Z,2.70
2018-11-02T01:57:19.821Z,3.30
2018-11-02T01:59:55.054Z,2.70
2018-11-02T02:02:30.048Z,3.00
2018-11-02T02:05:06.032Z,2.83
2018-11-02T02:07:41.224Z,3.03
2018-11-02T02:10:16.211Z,3.00
2018-11-02T02:12:51.361Z,3.23
2018-11-02T02:15:26.260Z,3.30
2018-11-02T02:18:01.414Z,3.33
2018-11-02T02:20:36.649Z,3.20
2018-11-02T02:23:12.129Z,3.50
2018-11-02T02:25:47.235Z,3.20
2018-11-02T02:28:22.253Z,3.60
2018-11-02T02:30:57.516Z,3.73
2018-11-02T02:33:32.479Z,3.93
2018-11-02T02:36:07.853Z,4.20
2018-11-02T02:38:43.833Z,4.23
2018-11-02T02:41:18.905Z,4.70
2018-11-02T02:43:53.683Z,4.73
2018-11-02T02:46:29.244Z,5.00
2018-11-02T02:49:04.537Z,5.70
2018-11-02T02:51:39.548Z,5.90
2018-11-02T02:54:14.424Z,6.00
2018-11-02T02:56:49.766Z,5.60
2018-11-02T02:59:24.859Z,6.40
2018-11-02T03:01:59.921Z,6.53
2018-11-02T03:04:35.000Z,6.83
2018-11-02T03:07:09.925Z,6.80
2018-11-02T03:09:45.042Z,7.30
2018-11-02T03:12:21.045Z,7.07
2018-11-02T03:14:56.073Z,6.80
2018-11-02T03:17:31.007Z,6.80
2018-11-02T03:20:08.394Z,8.17
2018-11-02T03:22:43.565Z,6.87
2018-11-02T03:25:19.139Z,8.60
2018-11-02T03:27:54.177Z,8.50
2018-11-02T03:30:28.974Z,8.77
2018-11-02T03:33:04.108Z,9.27
2018-11-02T03:35:39.477Z,9.63
2018-11-02T03:38:14.535Z,9.60
2018-11-02T03:40:50.206Z,10.20
2018-11-02T03:43:25.272Z,10.87
2018-11-02T03:46:00.072Z,10.87
2018-11-02T03:48:35.288Z,11.10
2018-11-02T03:51:10.386Z,10.70
2018-11-02T03:53:45.948Z,10.70
2018-11-02T03:56:20.922Z,11.53
2018-11-02T03:58:56.048Z,11.17
2018-11-02T04:01:31.139Z,12.37
2018-11-02T04:04:06.586Z,12.70
2018-11-02T04:06:42.232Z,12.07
2018-11-02T04:09:17.421Z,11.97
2018-11-02T04:11:52.497Z,13.17
2018-11-02T04:14:27.910Z,14.00
2018-11-02T04:17:02.824Z,13.70
2018-11-02T04:19:38.795Z,13.37
2018-11-02T04:22:13.648Z,12.90
2018-11-02T04:24:48.658Z,14.00
2018-11-02T04:27:23.904Z,13.53
2018-11-02T04:29:59.390Z,13.77
2018-11-02T04:32:34.236Z,13.53
2018-11-02T04:35:09.890Z,14.33
2018-11-02T04:37:45.032Z,14.23
2018-11-02T04:40:20.196Z,13.60
2018-11-02T04:42:55.278Z,14.00
2018-11-02T04:45:35.709Z,14.40
2018-11-02T04:48:12.674Z,13.73
2018-11-02T04:50:48.221Z,15.20
2018-11-02T04:53:23.483Z,15.07
2018-11-02T04:55:59.368Z,14.70
2018-11-02T04:58:34.643Z,15.43
2018-11-02T05:01:10.446Z,14.90
2018-11-02T05:03:45.800Z,14.43
2018-11-02T05:06:20.896Z,14.93
2018-11-02T05:08:55.965Z,14.93
2018-11-02T05:11:30.979Z,13.87
2018-11-02T05:14:06.221Z,14.57
2018-11-02T05:16:41.566Z,15.10
2018-11-02T05:19:16.741Z,14.80
2018-11-02T05:21:51.927Z,14.30
2018-11-02T05:24:27.390Z,14.87
2018-11-02T05:27:02.203Z,14.57
2018-11-02T05:29:37.180Z,13.87
2018-11-02T05:32:12.190Z,13.43
2018-11-02T05:34:47.481Z,14.80
2018-11-02T05:37:22.330Z,14.33
2018-11-02T05:39:57.612Z,14.03
2018-11-02T05:42:32.693Z,12.80
2018-11-02T05:45:07.856Z,14.30
2018-11-02T05:47:43.756Z,13.17
2018-11-02T05:50:18.714Z,14.00
2018-11-02T05:52:54.733Z,13.50
2018-11-02T05:55:29.995Z,12.97
2018-11-02T05:58:05.278Z,13.10
2018-11-02T06:00:40.945Z,13.03
2018-11-02T06:03:15.691Z,14.67
2018-11-02T06:05:50.944Z,13.80
2018-11-02T06:08:26.418Z,15.13
2018-11-02T06:11:01.322Z,13.80
2018-11-02T06:13:37.447Z,14.77
2018-11-02T06:16:12.686Z,13.83
2018-11-02T06:18:47.738Z,15.23
2018-11-02T06:21:23.574Z,15.30
2018-11-02T06:23:58.809Z,15.97
2018-11-02T06:26:33.858Z,15.80
2018-11-02T06:29:09.204Z,19.03
2018-11-02T06:31:50.039Z,18.27
2018-11-02T06:34:26.035Z,17.67
2018-11-02T06:37:03.266Z,18.50
2018-11-02T06:39:40.553Z,16.23
2018-11-02T06:42:17.988Z,16.00
2018-11-02T06:44:54.808Z,15.07
2018-11-02T06:47:31.054Z,15.50
2018-11-02T06:50:07.092Z,13.40
2018-11-02T06:52:42.329Z,14.50
2018-11-02T06:55:17.389Z,14.20
2018-11-02T06:57:52.208Z,13.53
2018-11-02T07:00:27.583Z,13.50
2018-11-02T07:03:04.998Z,13.77
2018-11-02T07:05:40.290Z,14.00
2018-11-02T07:08:15.614Z,14.10
2018-11-02T07:10:50.695Z,13.47
2018-11-02T07:13:26.216Z,13.87
2018-11-02T07:16:01.410Z,14.67
2018-11-02T07:18:36.593Z,15.00
2018-11-02T07:21:11.828Z,14.40
2018-11-02T07:23:47.594Z,14.07
2018-11-02T07:26:22.684Z,13.70
2018-11-02T07:28:57.669Z,14.77
2018-11-02T07:31:33.080Z,13.40
2018-11-02T07:34:09.297Z,15.53
2018-11-02T07:36:45.262Z,14.60
2018-11-02T07:39:31.897Z,14.43
2018-11-02T07:42:07.016Z,13.40
2018-11-02T07:44:42.266Z,14.40
2018-11-02T07:47:18.694Z,15.13
2018-11-02T07:49:53.892Z,13.70
2018-11-02T07:52:28.785Z,14.20
2018-11-02T07:55:04.238Z,15.63
2018-11-02T07:57:39.439Z,14.50
2018-11-02T08:00:16.012Z,15.20
2018-11-02T08:02:51.141Z,14.00
2018-11-02T08:05:26.764Z,15.73
2018-11-02T08:08:01.995Z,15.93
2018-11-02T08:10:37.426Z,14.37
2018-11-02T08:13:12.466Z,16.27
2018-11-02T08:15:47.489Z,15.23
2018-11-02T08:18:22.991Z,14.43
2018-11-02T08:20:57.929Z,16.30
2018-11-02T08:23:33.040Z,14.80
2018-11-02T08:26:08.322Z,15.37
2018-11-02T08:28:43.094Z,14.20
2018-11-02T08:31:18.178Z,15.80
2018-11-02T08:33:53.207Z,16.57
2018-11-02T08:36:28.206Z,14.67
2018-11-02T08:39:03.223Z,16.47
2018-11-02T08:41:38.516Z,14.97
2018-11-02T08:44:13.485Z,15.27
2018-11-02T08:46:48.309Z,15.77
2018-11-02T08:49:23.417Z,15.50
2018-11-02T08:51:58.479Z,15.43
2018-11-02T08:54:33.748Z,15.77
2018-11-02T08:57:09.378Z,15.10
2018-11-02T08:59:44.731Z,15.03
2018-11-02T09:02:21.408Z,15.00
2018-11-02T09:04:57.062Z,16.77
2018-11-02T09:07:32.101Z,16.57
2018-11-02T09:10:10.148Z,16.40
2018-11-02T09:12:45.373Z,15.30
2018-11-02T09:15:20.658Z,15.60
2018-11-02T09:18:01.406Z,15.73
2018-11-02T09:20:36.710Z,15.43
2018-11-02T09:23:11.693Z,15.57
2018-11-02T09:25:47.156Z,15.80
2018-11-02T09:28:24.010Z,15.30
2018-11-02T09:30:58.917Z,14.90
2018-11-02T09:33:34.194Z,14.13
2018-11-02T09:36:10.031Z,13.93
2018-11-02T09:38:45.445Z,13.20
2018-11-02T09:41:20.669Z,13.60
2018-11-02T09:43:55.705Z,13.77
2018-11-02T09:46:31.072Z,13.00
2018-11-02T09:49:06.427Z,11.83
2018-11-02T09:51:42.140Z,12.23
2018-11-02T09:54:17.236Z,11.83
2018-11-02T09:56:52.910Z,11.00
2018-11-02T09:59:28.315Z,10.93
2018-11-02T10:02:03.571Z,11.80
2018-11-02T10:04:38.811Z,11.23
2018-11-02T10:07:14.365Z,11.00
2018-11-02T10:09:49.530Z,11.77
2018-11-02T10:12:25.716Z,10.00
2018-11-02T10:15:01.115Z,10.17
2018-11-02T10:17:36.289Z,10.10
2018-11-02T10:20:12.052Z,9.57
2018-11-02T10:22:47.429Z,8.80
2018-11-02T10:25:22.400Z,7.70
2018-11-02T10:27:57.629Z,8.00
2018-11-02T10:30:33.614Z,7.87
2018-11-02T10:33:09.279Z,7.50
2018-11-02T10:35:45.579Z,7.00
2018-11-02T10:38:21.133Z,7.00
2018-11-02T10:40:58.721Z,7.07
2018-11-02T10:43:33.962Z,7.10
2018-11-02T10:46:09.611Z,7.67
2018-11-02T10:48:45.487Z,6.87
2018-11-02T10:51:21.045Z,6.83
2018-11-02T10:53:56.604Z,6.17
2018-11-02T10:56:31.816Z,7.17
2018-11-02T10:59:06.998Z,6.53
2018-11-02T11:01:47.578Z,6.77
2018-11-02T11:04:23.208Z,7.63
2018-11-02T11:06:58.977Z,6.97
2018-11-02T11:09:34.917Z,6.70
2018-11-02T11:12:11.410Z,7.60
2018-11-02T11:14:47.096Z,7.47
2018-11-02T11:17:22.822Z,7.07
2018-11-02T11:19:58.290Z,8.03
2018-11-02T11:22:34.049Z,7.87
2018-11-02T11:25:12.144Z,8.00
2018-11-02T11:27:48.458Z,8.40
2018-11-02T11:30:24.193Z,7.63
2018-11-02T11:32:59.913Z,7.60
2018-11-02T11:35:35.497Z,7.50
2018-11-02T11:38:10.858Z,7.67
2018-11-02T11:40:46.650Z,8.20
2018-11-02T11:43:21.873Z,7.53
2018-11-02T11:45:58.199Z,6.93
2018-11-02T11:48:33.540Z,7.00
2018-11-02T11:51:08.624Z,5.93
2018-11-02T11:53:44.091Z,6.47
2018-11-02T11:56:19.278Z,7.37
2018-11-02T11:58:54.416Z,6.23
2018-11-02T12:01:29.741Z,6.10
2018-11-02T12:04:06.237Z,5.90
2018-11-02T12:06:41.403Z,6.10
2018-11-02T12:09:17.342Z,5.70
2018-11-02T12:11:52.702Z,6.30
2018-11-02T12:14:28.480Z,5.90
2018-11-02T12:17:04.087Z,6.77
2018-11-02T12:19:39.368Z,6.10
2018-11-02T12:22:14.634Z,6.07
2018-11-02T12:24:50.334Z,5.87
2018-11-02T12:27:26.429Z,5.63
2018-11-02T12:30:01.619Z,4.30
2018-11-02T12:32:36.911Z,4.30
2018-11-02T12:35:13.277Z,3.87
2018-11-02T12:37:49.467Z,4.63
2018-11-02T12:40:25.046Z,4.20
2018-11-02T12:43:00.768Z,3.80
2018-11-02T12:45:36.224Z,4.30
2018-11-02T12:48:11.901Z,4.47
2018-11-02T12:50:47.132Z,4.57
2018-11-02T12:53:22.820Z,4.77
2018-11-02T12:55:58.065Z,4.10
2018-11-02T12:58:33.268Z,4.57
2018-11-02T13:01:08.392Z,4.03
2018-11-02T13:03:43.790Z,3.87
2018-11-02T13:06:18.976Z,3.67
2018-11-02T13:08:54.445Z,4.40
2018-11-02T13:11:29.685Z,3.87
2018-11-02T13:14:05.374Z,4.07
2018-11-02T13:16:40.692Z,4.30
2018-11-02T13:19:16.130Z,4.57
2018-11-02T13:21:51.541Z,4.30
2018-11-02T13:24:26.729Z,4.40
2018-11-02T13:27:01.932Z,4.10
2018-11-02T13:29:38.196Z,3.90
2018-11-02T13:32:14.070Z,3.10
2018-11-02T13:34:49.536Z,3.40
2018-11-02T13:37:24.982Z,3.30
2018-11-02T13:40:00.352Z,3.50
2018-11-02T13:42:35.654Z,3.23
2018-11-02T13:45:11.957Z,3.50
2018-11-02T13:47:47.476Z,3.27
2018-11-02T13:50:23.696Z,3.13
2018-11-02T13:52:58.939Z,3.37
2018-11-02T13:55:34.684Z,3.27
2018-11-02T13:58:11.570Z,3.03
2018-11-02T14:00:46.906Z,2.90
2018-11-02T14:03:22.393Z,2.83
2018-11-02T14:05:57.470Z,3.20
2018-11-02T14:08:32.470Z,2.80
2018-11-02T14:11:07.599Z,3.10
2018-11-02T14:13:43.139Z,3.23
2018-11-02T14:16:18.255Z,3.13
2018-11-02T14:18:53.493Z,2.83
2018-11-02T14:21:28.904Z,2.90
2018-11-02T14:24:04.605Z,3.10
2018-11-02T14:26:39.683Z,3.30
2018-11-02T14:29:15.091Z,3.10
2018-11-02T14:31:50.400Z,2.50
2018-11-02T14:34:32.319Z,2.60
2018-11-02T14:37:07.647Z,2.83
2018-11-02T14:39:45.674Z,2.70
2018-11-02T14:42:20.852Z,2.70
2018-11-02T14:44:56.032Z,2.70
2018-11-02T14:47:31.850Z,2.47
2018-11-02T14:50:08.822Z,3.07
2018-11-02T14:52:44.277Z,2.80
2018-11-02T14:55:19.747Z,2.83
2018-11-02T14:57:54.850Z,2.77
2018-11-02T15:00:30.193Z,2.77
2018-11-02T15:03:05.520Z,2.50
2018-11-02T15:05:40.987Z,2.50
2018-11-02T15:08:16.408Z,2.77
2018-11-02T15:10:51.677Z,2.37
2018-11-02T15:13:27.449Z,2.33
2018-11-02T15:16:03.276Z,2.50
2018-11-02T15:18:43.397Z,2.60
2018-11-02T15:21:21.252Z,2.50
2018-11-02T15:23:56.384Z,2.50
2018-11-02T15:26:31.753Z,2.50
2018-11-02T15:29:10.919Z,2.37
2018-11-02T15:31:46.029Z,2.60
2018-11-02T15:34:22.670Z,2.83
2018-11-02T15:36:58.723Z,2.63
2018-11-02T15:39:38.542Z,2.70
2018-11-02T15:42:14.114Z,3.10
2018-11-02T15:44:49.407Z,2.83
2018-11-02T15:47:25.637Z,3.20
2018-11-02T15:50:01.806Z,3.20
2018-11-02T15:52:38.408Z,2.80
2018-11-02T15:55:13.818Z,2.77
2018-11-02T15:57:49.543Z,3.13
2018-11-02T16:00:25.519Z,3.20
2018-11-02T16:03:01.012Z,3.73
2018-11-02T16:05:42.289Z,3.73
2018-11-02T16:08:18.002Z,3.93
2018-11-02T16:10:53.241Z,4.40
2018-11-02T16:13:23.499Z,4.20
2018-11-02T16:15:53.487Z,4.37
2018-11-02T16:18:23.810Z,4.00
2018-11-02T16:20:53.585Z,4.97
2018-11-02T16:23:23.548Z,4.00
2018-11-02T16:25:53.055Z,4.90
2018-11-02T16:28:25.746Z,4.40
2018-11-02T16:30:55.567Z,4.80
2018-11-02T16:33:25.383Z,5.20
2018-11-02T16:36:01.403Z,6.00
2018-11-02T16:38:41.277Z,6.50
2018-11-02T16:41:17.123Z,5.33
2018-11-02T16:43:55.592Z,5.67
2018-11-02T16:46:31.999Z,5.13
2018-11-02T16:49:13.203Z,4.90
2018-11-02T16:51:48.678Z,5.87
2018-11-02T16:54:23.751Z,5.20
2018-11-02T16:56:59.215Z,5.80
2018-11-02T16:59:34.401Z,6.03
2018-11-02T17:02:09.636Z,7.10
2018-11-02T17:04:49.488Z,7.30
2018-11-02T17:07:29.018Z,5.77
2018-11-02T17:10:04.393Z,5.93
2018-11-02T17:12:40.272Z,5.90
2018-11-02T17:15:15.301Z,6.27
2018-11-02T17:17:51.559Z,7.00
2018-11-02T17:20:26.961Z,6.97
2018-11-02T17:23:02.398Z,6.23
2018-11-02T17:25:37.791Z,6.37
2018-11-02T17:28:13.408Z,7.20
2018-11-02T17:30:48.805Z,6.33
2018-11-02T17:33:23.605Z,5.77
2018-11-02T17:35:59.640Z,6.40
2018-11-02T17:38:35.442Z,6.63
2018-11-02T17:41:11.171Z,6.63
2018-11-02T17:43:46.583Z,6.40
2018-11-02T17:46:21.998Z,6.90
2018-11-02T17:48:58.377Z,7.40
2018-11-02T17:51:55.318Z,6.63
2018-11-02T17:54:30.568Z,7.30
2018-11-02T17:57:06.327Z,7.03
2018-11-02T17:59:41.662Z,7.33
2018-11-02T18:02:17.217Z,7.17
2018-11-02T18:04:52.429Z,6.97
2018-11-02T18:07:27.593Z,7.27
2018-11-02T18:10:02.940Z,6.67
2018-11-02T18:12:38.110Z,7.40
2018-11-02T18:15:13.606Z,7.50
2018-11-02T18:17:48.984Z,7.10
2018-11-02T18:20:24.615Z,7.23
2018-11-02T18:22:59.621Z,6.70
2018-11-02T18:25:35.177Z,7.73
2018-11-02T18:28:10.421Z,7.73
2018-11-02T18:30:45.634Z,7.63
2018-11-02T18:33:15.043Z,7.67
2018-11-02T18:35:44.973Z,7.53
2018-11-02T18:38:15.076Z,8.00
2018-11-02T18:40:45.538Z,8.30
2018-11-02T18:43:15.846Z,8.00
2018-11-02T18:45:45.942Z,8.10
2018-11-02T18:48:15.849Z,7.60
2018-11-02T18:50:46.334Z,8.70
2018-11-02T18:53:16.335Z,8.37
2018-11-02T18:55:46.126Z,8.70
2018-11-02T18:58:21.238Z,8.10
2018-11-02T19:00:56.632Z,9.23
2018-11-02T19:03:31.678Z,8.27
2018-11-02T19:06:07.529Z,8.07
2018-11-02T19:08:42.843Z,9.23
2018-11-02T19:11:18.213Z,8.77
2018-11-02T19:13:53.184Z,8.67
2018-11-02T19:16:28.975Z,8.90
2018-11-02T19:19:04.255Z,9.50
2018-11-02T19:21:39.771Z,9.43
2018-11-02T19:24:15.365Z,9.90
2018-11-02T19:26:51.396Z,9.43
2018-11-02T19:29:26.867Z,9.23
2018-11-02T19:32:02.365Z,9.27
2018-11-02T19:34:38.105Z,9.33
2018-11-02T19:37:13.190Z,9.40
2018-11-02T19:39:49.529Z,9.50
2018-11-02T19:42:24.990Z,9.07
2018-11-02T19:45:00.209Z,10.13
2018-11-02T19:47:41.321Z,8.80
2018-11-02T19:50:17.735Z,8.70
2018-11-02T19:52:53.690Z,10.27
2018-11-02T19:55:33.234Z,9.87
2018-11-02T19:58:09.120Z,9.13
2018-11-02T20:00:45.077Z,9.37
2018-11-02T20:03:20.638Z,8.80
2018-11-02T20:05:57.041Z,8.83
2018-11-02T20:08:32.493Z,9.00
2018-11-02T20:11:08.035Z,9.00
2018-11-02T20:13:44.174Z,9.40
2018-11-02T20:16:19.207Z,9.00
2018-11-02T20:18:55.105Z,9.57
2018-11-02T20:21:30.697Z,9.30
2018-11-02T20:24:06.461Z,9.90
2018-11-02T20:26:42.414Z,10.53
2018-11-02T20:29:17.488Z,9.30
2018-11-02T20:31:52.660Z,10.23
2018-11-02T20:34:28.163Z,10.00
2018-11-02T20:37:03.065Z,9.90
2018-11-02T20:39:38.823Z,9.63
2018-11-02T20:42:14.191Z,9.43
2018-11-02T20:44:49.497Z,9.30
2018-11-02T20:47:24.489Z,9.53
2018-11-02T20:50:00.115Z,9.60
2018-11-02T20:52:36.381Z,9.33
2018-11-02T20:55:12.873Z,9.40
2018-11-02T20:57:43.242Z,10.20
2018-11-02T21:00:21.821Z,10.97
2018-11-02T21:02:56.930Z,10.37
2018-11-02T21:05:32.220Z,10.70
2018-11-02T21:08:08.035Z,9.43
2018-11-02T21:10:43.381Z,11.47
2018-11-02T21:13:19.247Z,10.53
2018-11-02T21:15:54.570Z,10.83
2018-11-02T21:18:29.734Z,10.17
2018-11-02T21:21:06.153Z,10.43
2018-11-02T21:23:41.558Z,9.53
2018-11-02T21:26:16.794Z,10.37
2018-11-02T21:28:51.963Z,10.73
2018-11-02T21:31:27.413Z,10.17
2018-11-02T21:34:02.553Z,10.30
2018-11-02T21:36:37.805Z,10.47
2018-11-02T21:39:13.565Z,10.20
2018-11-02T21:41:48.843Z,9.97
2018-11-02T21:44:23.926Z,9.70
2018-11-02T21:47:00.336Z,9.53
2018-11-02T21:49:35.783Z,8.90
2018-11-02T21:52:11.361Z,9.80
2018-11-02T21:54:46.815Z,10.30
2018-11-02T21:57:22.067Z,9.40
2018-11-02T21:59:57.741Z,9.07
2018-11-02T22:02:33.334Z,10.30
2018-11-02T22:05:10.611Z,10.50
2018-11-02T22:07:47.328Z,8.97
2018-11-02T22:10:22.813Z,9.97
2018-11-02T22:12:58.870Z,10.00
2018-11-02T22:15:39.352Z,10.07
2018-11-02T22:18:14.466Z,9.77
2018-11-02T22:20:49.760Z,9.70
2018-11-02T22:23:25.202Z,9.40
2018-11-02T22:26:01.017Z,8.97
2018-11-02T22:28:36.066Z,9.57
2018-11-02T22:31:11.546Z,9.10
2018-11-02T22:33:46.758Z,8.97
2018-11-02T22:36:22.335Z,9.63
2018-11-02T22:38:57.798Z,9.03
2018-11-02T22:41:33.317Z,8.87
2018-11-02T22:44:08.702Z,9.07
2018-11-02T22:46:44.259Z,8.90
2018-11-02T22:49:19.848Z,9.70
2018-11-02T22:51:55.551Z,9.40
2018-11-02T22:54:30.711Z,8.67
2018-11-02T22:57:06.721Z,9.37
2018-11-02T22:59:42.790Z,9.57
2018-11-02T23:02:17.836Z,10.27
2018-11-02T23:04:53.457Z,9.33
2018-11-02T23:07:29.360Z,9.20
2018-11-02T23:10:05.619Z,9.50
2018-11-02T23:12:41.506Z,9.03
2018-11-02T23:15:18.186Z,9.70
2018-11-02T23:17:53.810Z,10.10
2018-11-02T23:20:29.557Z,9.13
2018-11-02T23:23:05.384Z,10.20
2018-11-02T23:25:40.106Z,9.70
2018-11-02T23:28:15.533Z,10.63
2018-11-02T23:30:44.764Z,9.77
2018-11-02T23:33:19.793Z,9.80
2018-11-02T23:35:55.749Z,9.60
2018-11-02T23:38:31.188Z,10.90
2018-11-02T23:41:06.553Z,9.70
2018-11-02T23:43:47.646Z,10.40
2018-11-02T23:46:22.793Z,10.90
2018-11-02T23:48:58.455Z,10.83
2018-11-02T23:51:34.325Z,9.67
2018-11-02T23:54:09.883Z,11.07
2018-11-02T23:56:44.822Z,12.10
2018-11-02T23:59:19.967Z,11.90
